createdAt,value
2022-08-10T00:01:51.687Z,19.80
2022-08-10T00:04:21.314Z,19.70
2022-08-10T00:06:53.225Z,19.80
2022-08-10T00:09:21.923Z,19.70
2022-08-10T00:11:49.111Z,19.70
2022-08-10T00:14:16.043Z,19.70
2022-08-10T00:16:44.280Z,19.60
2022-08-10T00:19:16.688Z,19.60
2022-08-10T00:21:47.057Z,19.50
2022-08-10T00:24:15.517Z,19.60
2022-08-10T00:28:01.040Z,19.50
2022-08-10T00:29:29.601Z,19.50
2022-08-10T00:31:59.207Z,19.50
2022-08-10T00:34:32.169Z,19.40
2022-08-10T00:37:00.735Z,19.40
2022-08-10T00:39:29.273Z,19.50
2022-08-10T00:42:02.198Z,19.40
2022-08-10T00:44:53.598Z,19.40
2022-08-10T00:47:36.154Z,19.30
2022-08-10T00:50:07.274Z,19.20
2022-08-10T00:52:36.476Z,19.20
2022-08-10T00:55:08.521Z,19.10
2022-08-10T00:57:35.533Z,19.10
2022-08-10T01:00:04.900Z,19.00
2022-08-10T01:02:33.177Z,19.00
2022-08-10T01:05:09.084Z,19.10
2022-08-10T01:08:19.357Z,19.10
2022-08-10T01:12:38.864Z,19.00
2022-08-10T01:14:19.035Z,19.00
2022-08-10T01:17:50.439Z,19.00
2022-08-10T01:20:31.686Z,18.90
2022-08-10T01:23:44.610Z,18.70
2022-08-10T01:27:07.994Z,18.80
2022-08-10T01:30:21.036Z,18.80
2022-08-10T01:33:11.797Z,18.70
2022-08-10T01:36:05.247Z,18.60
2022-08-10T01:38:35.303Z,18.60
2022-08-10T01:41:26.281Z,18.50
2022-08-10T01:44:12.067Z,18.60
2022-08-10T01:47:23.591Z,18.60
2022-08-10T01:50:03.145Z,18.40
2022-08-10T01:52:32.065Z,18.40
2022-08-10T01:54:59.497Z,18.40
2022-08-10T01:57:32.284Z,18.40
2022-08-10T02:00:03.354Z,18.30
2022-08-10T02:02:34.876Z,18.20
2022-08-10T02:05:06.450Z,18.30
2022-08-10T02:07:38.953Z,18.30
2022-08-10T02:10:12.867Z,18.30
2022-08-10T02:12:43.035Z,18.20
2022-08-10T02:15:19.164Z,18.30
2022-08-10T02:17:59.431Z,18.30
2022-08-10T02:20:41.265Z,18.30
2022-08-10T02:23:15.337Z,18.30
2022-08-10T02:25:45.263Z,18.20
2022-08-10T02:28:30.260Z,18.30
2022-08-10T02:31:11.385Z,18.20
2022-08-10T02:33:54.199Z,18.20
2022-08-10T02:36:30.905Z,18.20
2022-08-10T02:39:02.953Z,18.10
2022-08-10T02:45:01.818Z,18.20
2022-08-10T02:45:20.596Z,18.20
2022-08-10T02:48:01.516Z,18.10
2022-08-10T02:50:33.533Z,18.10
2022-08-10T02:53:55.812Z,18.10
2022-08-10T02:56:36.685Z,18.10
2022-08-10T02:59:39.622Z,18.00
2022-08-10T03:02:15.277Z,18.00
2022-08-10T03:04:55.938Z,18.00
2022-08-10T03:07:42.926Z,18.00
2022-08-10T03:10:18.336Z,17.90
2022-08-10T03:12:51.298Z,17.90
2022-08-10T03:15:40.440Z,17.90
2022-08-10T03:18:09.553Z,18.00
2022-08-10T03:20:57.722Z,17.90
2022-08-10T03:23:26.757Z,17.90
2022-08-10T03:25:57.763Z,17.80
2022-08-10T03:28:29.014Z,17.70
2022-08-10T03:31:13.148Z,17.70
2022-08-10T03:33:43.560Z,17.60
2022-08-10T03:36:43.621Z,17.50
2022-08-10T03:39:00.085Z,17.50
2022-08-10T03:41:57.511Z,17.40
2022-08-10T03:44:32.152Z,17.50
2022-08-10T03:47:16.156Z,17.50
2022-08-10T03:49:47.452Z,17.50
2022-08-10T03:52:19.169Z,17.50
2022-08-10T03:54:47.213Z,17.40
2022-08-10T03:57:16.568Z,17.40
2022-08-10T03:59:43.754Z,17.50
2022-08-10T04:02:46.398Z,17.50
2022-08-10T04:05:00.430Z,17.50
2022-08-10T04:07:28.407Z,17.50
2022-08-10T04:09:56.415Z,17.40
2022-08-10T04:12:25.715Z,17.40
2022-08-10T04:14:53.743Z,17.40
2022-08-10T04:18:02.763Z,17.40
2022-08-10T04:20:39.975Z,17.30
2022-08-10T04:23:18.194Z,17.40
2022-08-10T04:25:45.054Z,17.50
2022-08-10T04:28:12.819Z,17.40
2022-08-10T04:30:41.616Z,17.40
2022-08-10T04:33:10.975Z,17.40
2022-08-10T04:35:40.090Z,17.40
2022-08-10T04:38:09.252Z,17.40
2022-08-10T04:40:36.939Z,17.40
2022-08-10T04:43:12.271Z,17.50
2022-08-10T04:45:49.200Z,17.40
2022-08-10T04:48:42.551Z,17.30
2022-08-10T04:51:18.433Z,17.40
2022-08-10T04:54:03.004Z,17.30
2022-08-10T04:56:40.538Z,17.30
2022-08-10T04:59:10.346Z,17.40
2022-08-10T05:02:28.178Z,17.40
2022-08-10T05:04:34.841Z,17.40
2022-08-10T05:07:16.761Z,17.40
2022-08-10T05:10:03.823Z,17.40
2022-08-10T05:12:38.674Z,17.40
2022-08-10T05:15:11.829Z,17.40
2022-08-10T05:17:41.318Z,17.40
2022-08-10T05:20:28.313Z,17.50
2022-08-10T05:22:55.025Z,17.50
2022-08-10T05:25:21.870Z,17.50
2022-08-10T05:27:48.891Z,17.50
2022-08-10T05:30:23.569Z,17.50
2022-08-10T05:32:56.142Z,17.50
2022-08-10T05:35:25.905Z,17.60
2022-08-10T05:38:10.474Z,17.50
2022-08-10T05:40:46.820Z,17.60
2022-08-10T05:43:17.965Z,17.60
2022-08-10T05:46:19.076Z,17.60
2022-08-10T05:48:41.702Z,17.60
2022-08-10T05:51:22.143Z,17.60
2022-08-10T05:54:03.114Z,17.60
2022-08-10T05:56:56.099Z,17.60
2022-08-10T06:00:29.334Z,17.60
2022-08-10T06:02:35.611Z,17.70
2022-08-10T06:05:19.445Z,17.70
2022-08-10T06:07:52.864Z,17.80
2022-08-10T06:10:32.569Z,17.80
2022-08-10T06:13:30.069Z,17.80
2022-08-10T06:16:02.571Z,17.90
2022-08-10T06:18:30.171Z,18.00
2022-08-10T06:20:58.137Z,17.90
2022-08-10T06:23:31.118Z,18.00
2022-08-10T06:26:10.367Z,18.00
2022-08-10T06:29:03.312Z,18.00
2022-08-10T06:31:48.790Z,18.10
2022-08-10T06:34:30.365Z,18.00
2022-08-10T06:37:01.685Z,18.20
2022-08-10T06:39:36.941Z,18.20
2022-08-10T06:42:14.629Z,18.30
2022-08-10T06:45:13.304Z,18.30
2022-08-10T06:47:54.252Z,18.30
2022-08-10T06:50:56.193Z,18.40
2022-08-10T06:53:54.256Z,18.40
2022-08-10T06:56:35.973Z,18.40
2022-08-10T06:59:40.184Z,18.50
2022-08-10T07:02:19.620Z,18.60
2022-08-10T07:05:00.954Z,18.60
2022-08-10T07:07:34.868Z,18.60
2022-08-10T07:10:02.472Z,18.80
2022-08-10T07:12:32.426Z,18.80
2022-08-10T07:15:01.346Z,18.80
2022-08-10T07:17:34.866Z,18.90
2022-08-10T07:20:11.212Z,18.90
2022-08-10T07:23:26.861Z,19.00
2022-08-10T07:25:31.660Z,19.10
2022-08-10T07:28:02.235Z,19.10
2022-08-10T07:30:35.836Z,19.20
2022-08-10T07:33:05.042Z,19.40
2022-08-10T07:35:42.563Z,19.40
2022-08-10T07:38:29.428Z,19.40
2022-08-10T07:41:02.481Z,19.50
2022-08-10T07:43:37.325Z,19.50
2022-08-10T07:46:12.119Z,19.60
2022-08-10T07:48:49.219Z,19.70
2022-08-10T07:51:21.589Z,19.70
2022-08-10T07:53:55.493Z,19.80
2022-08-10T07:56:47.990Z,19.90
2022-08-10T07:59:22.872Z,20.00
2022-08-10T08:01:56.223Z,20.10
2022-08-10T08:04:26.009Z,20.20
2022-08-10T08:06:54.701Z,20.30
2022-08-10T08:09:24.476Z,20.30
2022-08-10T08:11:54.406Z,20.60
2022-08-10T08:14:24.684Z,20.90
2022-08-10T08:16:55.186Z,21.30
2022-08-10T08:19:27.766Z,21.50
2022-08-10T08:24:30.564Z,21.60
2022-08-10T08:24:46.481Z,22.00
2022-08-10T08:27:19.764Z,22.20
2022-08-10T08:29:52.464Z,22.40
2022-08-10T08:32:23.596Z,22.70
2022-08-10T08:34:59.540Z,23.00
2022-08-10T08:38:31.781Z,23.20
2022-08-10T08:40:32.673Z,23.50
2022-08-10T08:43:59.760Z,23.90
2022-08-10T08:47:12.031Z,24.10
2022-08-10T08:50:09.696Z,24.70
2022-08-10T08:52:53.768Z,24.90
2022-08-10T08:56:05.028Z,25.40
2022-08-10T08:58:54.939Z,25.20
2022-08-10T09:01:46.790Z,25.10
2022-08-10T09:04:52.682Z,25.30
2022-08-10T09:08:03.102Z,25.50
2022-08-10T09:11:15.228Z,25.40
2022-08-10T09:14:08.588Z,25.70
2022-08-10T09:16:53.610Z,25.90
2022-08-10T09:19:36.685Z,26.00
2022-08-10T09:23:04.905Z,25.90
2022-08-10T09:25:42.029Z,25.90
2022-08-10T09:28:26.654Z,26.40
2022-08-10T09:31:21.898Z,26.50
2022-08-10T09:36:24.241Z,26.60
2022-08-10T09:37:24.320Z,26.50
2022-08-10T09:41:00.265Z,26.60
2022-08-10T09:43:51.242Z,26.70
2022-08-10T09:46:45.749Z,26.70
2022-08-10T09:49:59.727Z,27.00
2022-08-10T09:53:03.220Z,27.10
2022-08-10T09:56:18.605Z,27.20
2022-08-10T09:58:43.174Z,27.10
2022-08-10T10:01:58.300Z,27.30
2022-08-10T10:04:46.229Z,27.40
2022-08-10T10:07:25.658Z,27.50
2022-08-10T10:10:22.510Z,27.80
2022-08-10T10:13:06.926Z,27.80
2022-08-10T10:16:07.607Z,27.90
2022-08-10T10:18:34.347Z,28.00
2022-08-10T10:21:55.283Z,28.10
2022-08-10T10:24:47.470Z,28.20
2022-08-10T10:27:33.216Z,28.10
2022-08-10T10:30:10.326Z,28.30
2022-08-10T10:32:59.495Z,28.60
2022-08-10T10:35:52.921Z,28.50
2022-08-10T10:38:29.733Z,28.70
2022-08-10T10:41:57.427Z,28.70
2022-08-10T10:44:46.698Z,28.80
2022-08-10T10:47:55.189Z,29.00
2022-08-10T10:51:03.992Z,29.00
2022-08-10T10:54:36.959Z,29.10
2022-08-10T10:58:00.207Z,29.10
2022-08-10T11:00:23.909Z,29.40
2022-08-10T11:03:48.214Z,29.40
2022-08-10T11:06:50.871Z,29.20
2022-08-10T11:10:05.518Z,29.20
2022-08-10T11:12:32.115Z,29.30
2022-08-10T11:15:09.389Z,29.20
2022-08-10T11:17:48.849Z,29.40
2022-08-10T11:20:48.291Z,29.50
2022-08-10T11:23:43.073Z,29.60
2022-08-10T11:26:55.761Z,29.60
2022-08-10T11:30:01.983Z,29.80
2022-08-10T11:33:10.356Z,30.00
2022-08-10T11:35:56.428Z,29.60
2022-08-10T11:39:04.034Z,29.90
2022-08-10T11:42:09.501Z,30.00
2022-08-10T11:45:02.427Z,30.00
2022-08-10T11:47:46.618Z,29.80
2022-08-10T11:50:41.968Z,29.80
2022-08-10T11:53:51.270Z,30.00
2022-08-10T11:56:31.736Z,30.10
2022-08-10T11:59:17.940Z,30.30
2022-08-10T12:01:50.748Z,30.40
2022-08-10T12:04:21.350Z,30.60
2022-08-10T12:06:55.642Z,30.60
2022-08-10T12:10:11.507Z,30.70
2022-08-10T12:12:15.201Z,30.70
2022-08-10T12:14:55.178Z,30.70
2022-08-10T12:17:39.776Z,30.60
2022-08-10T12:20:35.841Z,30.80
2022-08-10T12:23:19.751Z,30.90
2022-08-10T12:26:12.655Z,30.90
2022-08-10T12:28:51.862Z,30.90
2022-08-10T12:31:31.530Z,31.00
2022-08-10T12:34:28.825Z,30.90
2022-08-10T12:37:12.544Z,31.00
2022-08-10T12:40:34.400Z,30.90
2022-08-10T12:44:05.488Z,31.00
2022-08-10T12:46:49.425Z,30.90
2022-08-10T12:49:37.259Z,31.10
2022-08-10T12:52:23.527Z,31.20
2022-08-10T12:54:53.295Z,31.00
2022-08-10T12:57:25.002Z,31.10
2022-08-10T12:59:57.845Z,31.10
2022-08-10T13:02:39.050Z,31.30
2022-08-10T13:05:11.285Z,31.40
2022-08-10T13:08:03.723Z,31.40
2022-08-10T13:10:41.381Z,31.40
2022-08-10T13:13:09.543Z,31.40
2022-08-10T13:15:49.207Z,31.60
2022-08-10T13:18:27.723Z,31.70
2022-08-10T13:21:20.997Z,31.80
2022-08-10T13:24:14.944Z,31.90
2022-08-10T13:27:26.442Z,31.90
2022-08-10T13:30:03.607Z,31.50
2022-08-10T13:32:36.273Z,31.40
2022-08-10T13:35:11.993Z,31.70
2022-08-10T13:37:45.013Z,31.80
2022-08-10T13:40:16.180Z,31.80
2022-08-10T13:42:45.715Z,31.90
2022-08-10T13:45:23.383Z,32.00
2022-08-10T13:47:55.908Z,31.80
2022-08-10T13:50:34.514Z,31.70
2022-08-10T13:53:11.498Z,31.80
2022-08-10T13:55:56.128Z,32.00
2022-08-10T13:58:48.101Z,32.00
2022-08-10T14:01:23.319Z,32.00
2022-08-10T14:04:00.626Z,31.90
2022-08-10T14:06:30.116Z,31.70
2022-08-10T14:09:04.664Z,31.80
2022-08-10T14:11:34.062Z,31.90
2022-08-10T14:14:32.432Z,31.80
2022-08-10T14:17:01.735Z,31.70
2022-08-10T14:19:36.669Z,31.80
2022-08-10T14:22:06.980Z,31.80
2022-08-10T14:24:36.815Z,32.00
2022-08-10T14:27:11.309Z,31.80
2022-08-10T14:29:46.327Z,31.80
2022-08-10T14:32:17.375Z,31.70
2022-08-10T14:36:16.802Z,31.70
2022-08-10T14:37:38.988Z,31.80
2022-08-10T14:40:13.608Z,31.80
2022-08-10T14:42:53.731Z,31.60
2022-08-10T14:45:26.657Z,31.50
2022-08-10T14:48:33.011Z,31.40
2022-08-10T14:51:02.947Z,31.40
2022-08-10T14:53:35.400Z,31.60
2022-08-10T14:56:13.570Z,31.80
2022-08-10T14:59:06.877Z,31.80
2022-08-10T15:02:00.809Z,31.80
2022-08-10T15:04:33.308Z,31.70
2022-08-10T15:07:30.034Z,31.60
2022-08-10T15:10:00.434Z,31.80
2022-08-10T15:12:35.034Z,31.60
2022-08-10T15:15:11.865Z,31.80
2022-08-10T15:17:57.616Z,31.90
2022-08-10T15:20:29.400Z,31.80
2022-08-10T15:23:05.482Z,31.90
2022-08-10T15:25:38.963Z,31.80
2022-08-10T15:28:11.684Z,32.00
2022-08-10T15:30:47.217Z,32.00
2022-08-10T15:34:02.508Z,32.10
2022-08-10T15:37:36.721Z,31.90
2022-08-10T15:40:21.767Z,31.90
2022-08-10T15:42:54.121Z,31.90
2022-08-10T15:45:22.797Z,31.80
2022-08-10T15:48:03.815Z,31.80
2022-08-10T15:50:45.632Z,31.90
2022-08-10T15:53:51.055Z,31.80
2022-08-10T15:56:39.936Z,31.70
2022-08-10T15:59:17.443Z,31.80
2022-08-10T16:02:12.488Z,31.70
2022-08-10T16:05:03.284Z,31.40
2022-08-10T16:07:46.170Z,31.40
2022-08-10T16:10:25.637Z,31.60
2022-08-10T16:14:00.873Z,31.70
2022-08-10T16:16:02.809Z,31.80
2022-08-10T16:18:38.531Z,31.60
2022-08-10T16:21:17.267Z,31.70
2022-08-10T16:24:15.112Z,31.80
2022-08-10T16:26:54.098Z,31.80
2022-08-10T16:29:26.281Z,31.70
2022-08-10T16:31:58.650Z,31.80
2022-08-10T16:34:29.188Z,31.80
2022-08-10T16:37:04.126Z,31.60
2022-08-10T16:40:00.338Z,31.60
2022-08-10T16:42:28.520Z,31.60
2022-08-10T16:45:06.167Z,31.70
2022-08-10T16:47:46.877Z,31.60
2022-08-10T16:50:24.669Z,31.60
2022-08-10T16:52:55.499Z,31.80
2022-08-10T16:55:48.211Z,31.70
2022-08-10T16:58:17.298Z,31.60
2022-08-10T17:00:46.930Z,31.40
2022-08-10T17:04:08.506Z,31.20
2022-08-10T17:07:03.739Z,31.30
2022-08-10T17:09:35.332Z,31.30
2022-08-10T17:12:11.367Z,31.40
2022-08-10T17:14:41.752Z,31.20
2022-08-10T17:17:30.917Z,31.20
2022-08-10T17:20:30.063Z,31.20
2022-08-10T17:22:56.400Z,31.10
2022-08-10T17:25:48.349Z,31.00
2022-08-10T17:28:33.093Z,31.00
2022-08-10T17:31:23.701Z,30.90
2022-08-10T17:33:58.221Z,30.90
2022-08-10T17:36:32.204Z,30.90
2022-08-10T17:39:02.362Z,30.80
2022-08-10T17:41:33.136Z,30.60
2022-08-10T17:44:05.557Z,30.50
2022-08-10T17:46:39.017Z,30.50
2022-08-10T17:49:13.201Z,30.50
2022-08-10T17:51:42.887Z,30.50
2022-08-10T17:54:31.156Z,30.30
2022-08-10T17:57:04.522Z,30.20
2022-08-10T17:59:33.812Z,30.00
2022-08-10T18:02:25.643Z,30.00
2022-08-10T18:04:56.698Z,29.90
2022-08-10T18:07:35.092Z,29.80
2022-08-10T18:10:05.439Z,29.70
2022-08-10T18:12:46.495Z,29.60
2022-08-10T18:15:22.932Z,29.60
2022-08-10T18:17:59.245Z,29.50
2022-08-10T18:20:34.644Z,29.40
2022-08-10T18:23:03.674Z,29.40
2022-08-10T18:25:57.513Z,29.30
2022-08-10T18:28:25.998Z,29.30
2022-08-10T18:30:55.464Z,29.30
2022-08-10T18:33:38.001Z,29.30
2022-08-10T18:36:09.403Z,29.20
2022-08-10T18:38:40.217Z,29.10
2022-08-10T18:41:16.073Z,29.00
2022-08-10T18:44:11.616Z,29.10
2022-08-10T18:46:54.752Z,29.10
2022-08-10T18:49:39.903Z,28.90
2022-08-10T18:52:15.322Z,28.90
2022-08-10T18:54:49.603Z,28.90
2022-08-10T18:57:42.846Z,28.70
2022-08-10T19:00:20.459Z,28.50
2022-08-10T19:03:53.612Z,28.30
2022-08-10T19:07:01.692Z,28.20
2022-08-10T19:09:47.215Z,28.20
2022-08-10T19:12:45.560Z,28.20
2022-08-10T19:15:27.282Z,28.20
2022-08-10T19:18:18.740Z,28.20
2022-08-10T19:21:07.520Z,28.10
2022-08-10T19:24:01.959Z,28.00
2022-08-10T19:26:54.050Z,28.00
2022-08-10T19:30:00.972Z,27.90
2022-08-10T19:32:49.373Z,27.90
2022-08-10T19:36:04.154Z,27.80
2022-08-10T19:38:50.448Z,27.80
2022-08-10T19:41:44.347Z,27.70
2022-08-10T19:44:52.696Z,27.60
2022-08-10T19:47:34.098Z,27.60
2022-08-10T19:50:30.517Z,27.50
2022-08-10T19:53:31.027Z,27.30
2022-08-10T19:56:43.418Z,27.10
2022-08-10T20:00:16.680Z,27.10
2022-08-10T20:02:29.893Z,27.00
2022-08-10T20:05:07.134Z,26.90
2022-08-10T20:08:19.506Z,26.80
2022-08-10T20:11:05.798Z,26.60
2022-08-10T20:13:45.837Z,26.60
2022-08-10T20:16:34.753Z,26.50
2022-08-10T20:19:22.528Z,26.50
2022-08-10T20:22:02.561Z,26.50
2022-08-10T20:24:56.153Z,26.40
2022-08-10T20:27:58.832Z,26.30
2022-08-10T20:30:31.879Z,26.30
2022-08-10T20:33:17.928Z,26.20
2022-08-10T20:36:19.285Z,26.10
2022-08-10T20:39:02.405Z,26.00
2022-08-10T20:41:54.829Z,26.00
2022-08-10T20:45:06.457Z,26.00
2022-08-10T20:48:03.822Z,26.00
2022-08-10T20:50:46.182Z,25.90
2022-08-10T20:53:22.239Z,25.90
2022-08-10T20:56:44.451Z,25.80
2022-08-10T20:59:33.658Z,25.70
2022-08-10T21:02:47.824Z,25.70
2022-08-10T21:05:30.411Z,25.60
2022-08-10T21:08:03.261Z,25.50
2022-08-10T21:14:47.744Z,25.40
2022-08-10T21:36:56.321Z,24.90
2022-08-10T21:40:04.506Z,24.90
2022-08-10T21:43:44.706Z,24.80
2022-08-10T21:46:54.751Z,24.80
2022-08-10T21:53:43.942Z,24.60
2022-08-10T21:56:51.101Z,24.50
2022-08-10T21:59:50.818Z,24.40
2022-08-10T22:02:50.900Z,24.30
2022-08-10T22:05:51.466Z,24.20
2022-08-10T22:08:46.101Z,24.10
2022-08-10T22:11:40.542Z,24.10
2022-08-10T22:14:33.984Z,24.10
2022-08-10T22:18:00.939Z,24.10
2022-08-10T22:20:59.069Z,24.10
2022-08-10T22:24:32.908Z,24.00
2022-08-10T22:27:59.247Z,24.00
2022-08-10T22:31:27.575Z,24.70
2022-08-10T22:31:28.509Z,23.90
2022-08-10T22:34:37.550Z,23.80
2022-08-10T22:38:07.788Z,23.80
2022-08-10T22:40:54.314Z,23.70
2022-08-10T22:44:16.509Z,23.70
2022-08-10T22:47:09.483Z,23.60
2022-08-10T22:49:36.336Z,23.50
2022-08-10T22:52:15.789Z,23.40
2022-08-10T22:55:18.115Z,23.40
2022-08-10T22:58:23.620Z,23.30
2022-08-10T23:01:09.170Z,23.20
2022-08-10T23:03:48.756Z,23.20
2022-08-10T23:06:26.196Z,23.10
2022-08-10T23:09:01.246Z,23.10
2022-08-10T23:11:38.272Z,23.00
2022-08-10T23:14:35.514Z,23.10
2022-08-10T23:18:02.061Z,23.00
2022-08-10T23:20:27.069Z,23.00
2022-08-10T23:23:08.919Z,22.90
2022-08-10T23:25:56.701Z,22.90
2022-08-10T23:28:39.181Z,22.90
2022-08-10T23:31:58.347Z,22.80
2022-08-10T23:34:08.337Z,22.80
2022-08-10T23:36:40.472Z,22.80
2022-08-10T23:39:26.660Z,22.80
2022-08-10T23:42:07.170Z,22.90
2022-08-10T23:44:46.532Z,22.80
2022-08-10T23:47:21.262Z,22.70
2022-08-10T23:49:52.358Z,22.70
2022-08-10T23:52:27.723Z,22.70
2022-08-10T23:55:20.229Z,22.70
2022-08-10T23:58:03.283Z,22.70
